Wedgeport, Canada
Current Conditions -  °F | °C
As of 3:00 AM on Sunday 26 Oct 2014 (Local Time) from CYQI Reporting Station
Light Fog Light Fog  
Wind Chill: 41°   Ceiling: Unl
Heat Index: 41°   Visibility: 15mi
Dew Point: 41°   Wind: 3mph
Humidity: 100%   Direction: 90°E
Pressure: 29.51"   Gusts: NA
Location:  43.73°N, 65.98°W
Report Text: CYQI 260600Z 09003KT 15SM MIFG FEW017 SCT250 05/05 A2951 RMK SC2CI2 SLP992
Loading
Personal Weather Stations






























Interactive Weather Map
Tropical Storm Tracking
New forecast layout! Learn more

10-Day Weather Forecast

Advertisements
Track Severe Weather on mobile